sensor_id;sensor_type;location;lat;lon;timestamp;P1;durP1;ratioP1;P2;durP2;ratioP2
56599;SDS011;51832;48.152;11.530;2022-10-30T00:02:25;14.85;;;4.65;;
56599;SDS011;51832;48.152;11.530;2022-10-30T00:07:26;9.57;;;5.40;;
56599;SDS011;51832;48.152;11.530;2022-10-30T00:12:26;13.23;;;5.00;;
56599;SDS011;51832;48.152;11.530;2022-10-30T00:17:27;9.60;;;4.53;;
56599;SDS011;51832;48.152;11.530;2022-10-30T00:22:27;10.40;;;4.80;;
56599;SDS011;51832;48.152;11.530;2022-10-30T00:27:28;8.45;;;4.72;;
56599;SDS011;51832;48.152;11.530;2022-10-30T00:32:28;10.10;;;4.43;;
56599;SDS011;51832;48.152;11.530;2022-10-30T00:37:29;8.98;;;4.43;;
56599;SDS011;51832;48.152;11.530;2022-10-30T00:42:30;12.02;;;5.22;;
56599;SDS011;51832;48.152;11.530;2022-10-30T00:47:32;10.07;;;5.57;;
56599;SDS011;51832;48.152;11.530;2022-10-30T00:52:51;9.25;;;4.93;;
56599;SDS011;51832;48.152;11.530;2022-10-30T00:57:57;10.00;;;5.43;;
56599;SDS011;51832;48.152;11.530;2022-10-30T01:03:00;13.73;;;5.53;;
56599;SDS011;51832;48.152;11.530;2022-10-30T01:08:01;7.05;;;5.25;;
56599;SDS011;51832;48.152;11.530;2022-10-30T01:13:02;8.65;;;5.07;;
56599;SDS011;51832;48.152;11.530;2022-10-30T01:23:59;12.55;;;5.03;;
56599;SDS011;51832;48.152;11.530;2022-10-30T01:34:19;14.88;;;4.72;;
56599;SDS011;51832;48.152;11.530;2022-10-30T01:39:41;10.10;;;4.90;;
56599;SDS011;51832;48.152;11.530;2022-10-30T01:44:41;11.75;;;4.90;;
56599;SDS011;51832;48.152;11.530;2022-10-30T01:55:14;11.70;;;4.72;;
56599;SDS011;51832;48.152;11.530;2022-10-30T02:00:17;9.90;;;5.25;;
56599;SDS011;51832;48.152;11.530;2022-10-30T02:10:35;10.15;;;5.05;;
56599;SDS011;51832;48.152;11.530;2022-10-30T02:15:37;12.48;;;4.95;;
56599;SDS011;51832;48.152;11.530;2022-10-30T02:20:38;10.48;;;4.75;;
56599;SDS011;51832;48.152;11.530;2022-10-30T02:25:39;8.70;;;4.82;;
56599;SDS011;51832;48.152;11.530;2022-10-30T02:30:39;8.75;;;5.20;;
56599;SDS011;51832;48.152;11.530;2022-10-30T02:35:43;11.38;;;5.25;;
56599;SDS011;51832;48.152;11.530;2022-10-30T02:40:43;8.70;;;5.30;;
56599;SDS011;51832;48.152;11.530;2022-10-30T02:45:48;15.05;;;7.10;;
56599;SDS011;51832;48.152;11.530;2022-10-30T02:50:50;10.98;;;6.35;;
56599;SDS011;51832;48.152;11.530;2022-10-30T02:55:51;12.02;;;5.60;;
56599;SDS011;51832;48.152;11.530;2022-10-30T03:00:51;11.63;;;5.63;;
56599;SDS011;51832;48.152;11.530;2022-10-30T03:05:52;13.25;;;5.97;;
56599;SDS011;51832;48.152;11.530;2022-10-30T03:10:57;9.07;;;5.28;;
56599;SDS011;51832;48.152;11.530;2022-10-30T03:16:13;9.48;;;5.40;;
56599;SDS011;51832;48.152;11.530;2022-10-30T03:21:18;13.65;;;5.15;;
56599;SDS011;51832;48.152;11.530;2022-10-30T03:26:20;12.00;;;6.05;;
56599;SDS011;51832;48.152;11.530;2022-10-30T03:31:21;11.98;;;5.10;;
56599;SDS011;51832;48.152;11.530;2022-10-30T03:36:22;9.70;;;5.25;;
56599;SDS011;51832;48.152;11.530;2022-10-30T03:41:25;11.85;;;5.00;;
56599;SDS011;51832;48.152;11.530;2022-10-30T03:46:25;9.90;;;4.82;;
56599;SDS011;51832;48.152;11.530;2022-10-30T03:51:26;12.20;;;4.82;;
56599;SDS011;51832;48.152;11.530;2022-10-30T03:56:26;9.30;;;4.22;;
56599;SDS011;51832;48.152;11.530;2022-10-30T04:01:27;11.95;;;4.63;;
56599;SDS011;51832;48.152;11.530;2022-10-30T04:06:27;10.48;;;4.70;;
56599;SDS011;51832;48.152;11.530;2022-10-30T04:11:28;9.95;;;4.60;;
56599;SDS011;51832;48.152;11.530;2022-10-30T04:16:28;10.80;;;5.40;;
56599;SDS011;51832;48.152;11.530;2022-10-30T04:21:29;10.05;;;4.80;;
56599;SDS011;51832;48.152;11.530;2022-10-30T04:26:29;8.38;;;4.65;;
56599;SDS011;51832;48.152;11.530;2022-10-30T04:31:30;10.85;;;5.20;;
56599;SDS011;51832;48.152;11.530;2022-10-30T04:36:30;7.43;;;4.40;;
56599;SDS011;51832;48.152;11.530;2022-10-30T04:41:33;12.43;;;5.07;;
56599;SDS011;51832;48.152;11.530;2022-10-30T04:46:33;11.35;;;4.68;;
56599;SDS011;51832;48.152;11.530;2022-10-30T04:51:34;9.27;;;4.20;;
56599;SDS011;51832;48.152;11.530;2022-10-30T04:56:34;10.15;;;4.53;;
56599;SDS011;51832;48.152;11.530;2022-10-30T05:01:35;9.60;;;3.78;;
56599;SDS011;51832;48.152;11.530;2022-10-30T05:06:35;8.93;;;3.80;;
56599;SDS011;51832;48.152;11.530;2022-10-30T05:11:36;8.95;;;3.65;;
56599;SDS011;51832;48.152;11.530;2022-10-30T05:16:36;7.65;;;3.90;;
56599;SDS011;51832;48.152;11.530;2022-10-30T05:21:37;6.47;;;3.47;;
56599;SDS011;51832;48.152;11.530;2022-10-30T05:26:39;7.57;;;3.45;;
56599;SDS011;51832;48.152;11.530;2022-10-30T05:31:39;10.98;;;3.65;;
56599;SDS011;51832;48.152;11.530;2022-10-30T05:36:40;9.77;;;3.90;;
56599;SDS011;51832;48.152;11.530;2022-10-30T05:41:40;10.82;;;3.47;;
56599;SDS011;51832;48.152;11.530;2022-10-30T05:46:41;11.95;;;3.95;;
56599;SDS011;51832;48.152;11.530;2022-10-30T05:51:41;7.38;;;3.88;;
56599;SDS011;51832;48.152;11.530;2022-10-30T05:56:42;7.05;;;3.42;;
56599;SDS011;51832;48.152;11.530;2022-10-30T06:01:42;15.50;;;4.03;;
56599;SDS011;51832;48.152;11.530;2022-10-30T06:06:43;9.52;;;3.47;;
56599;SDS011;51832;48.152;11.530;2022-10-30T06:11:43;8.05;;;3.67;;
56599;SDS011;51832;48.152;11.530;2022-10-30T06:16:44;7.97;;;3.13;;
56599;SDS011;51832;48.152;11.530;2022-10-30T06:21:45;9.10;;;3.70;;
56599;SDS011;51832;48.152;11.530;2022-10-30T06:26:46;11.70;;;4.28;;
56599;SDS011;51832;48.152;11.530;2022-10-30T06:31:46;12.88;;;4.28;;
56599;SDS011;51832;48.152;11.530;2022-10-30T06:36:47;13.05;;;4.03;;
56599;SDS011;51832;48.152;11.530;2022-10-30T06:41:47;10.48;;;3.60;;
56599;SDS011;51832;48.152;11.530;2022-10-30T06:46:48;7.53;;;3.10;;
56599;SDS011;51832;48.152;11.530;2022-10-30T06:51:52;8.55;;;3.08;;
56599;SDS011;51832;48.152;11.530;2022-10-30T06:56:52;8.73;;;2.70;;
56599;SDS011;51832;48.152;11.530;2022-10-30T07:01:53;12.05;;;3.15;;
56599;SDS011;51832;48.152;11.530;2022-10-30T07:06:53;11.10;;;2.70;;
56599;SDS011;51832;48.152;11.530;2022-10-30T07:11:54;7.30;;;2.90;;
56599;SDS011;51832;48.152;11.530;2022-10-30T07:16:54;7.82;;;2.78;;
56599;SDS011;51832;48.152;11.530;2022-10-30T07:21:55;8.93;;;2.75;;
56599;SDS011;51832;48.152;11.530;2022-10-30T07:26:55;5.57;;;2.83;;
56599;SDS011;51832;48.152;11.530;2022-10-30T07:31:56;9.88;;;3.15;;
56599;SDS011;51832;48.152;11.530;2022-10-30T07:36:56;10.15;;;3.20;;
56599;SDS011;51832;48.152;11.530;2022-10-30T07:41:57;8.07;;;3.58;;
56599;SDS011;51832;48.152;11.530;2022-10-30T07:46:57;9.63;;;2.70;;
56599;SDS011;51832;48.152;11.530;2022-10-30T07:51:58;9.07;;;3.00;;
56599;SDS011;51832;48.152;11.530;2022-10-30T07:56:58;8.20;;;2.72;;
56599;SDS011;51832;48.152;11.530;2022-10-30T08:01:59;7.65;;;2.35;;
56599;SDS011;51832;48.152;11.530;2022-10-30T08:06:59;10.57;;;3.38;;
56599;SDS011;51832;48.152;11.530;2022-10-30T08:12:00;9.15;;;2.63;;
56599;SDS011;51832;48.152;11.530;2022-10-30T08:17:00;6.80;;;2.78;;
56599;SDS011;51832;48.152;11.530;2022-10-30T08:22:01;9.27;;;3.10;;
56599;SDS011;51832;48.152;11.530;2022-10-30T08:27:02;8.93;;;2.75;;
56599;SDS011;51832;48.152;11.530;2022-10-30T08:32:03;5.45;;;2.40;;
56599;SDS011;51832;48.152;11.530;2022-10-30T08:37:04;6.15;;;2.70;;
56599;SDS011;51832;48.152;11.530;2022-10-30T08:42:06;7.27;;;2.93;;
56599;SDS011;51832;48.152;11.530;2022-10-30T08:47:07;6.20;;;2.30;;
56599;SDS011;51832;48.152;11.530;2022-10-30T08:52:07;6.00;;;2.50;;
56599;SDS011;51832;48.152;11.530;2022-10-30T08:57:08;7.28;;;2.33;;
56599;SDS011;51832;48.152;11.530;2022-10-30T09:02:09;4.05;;;2.47;;
56599;SDS011;51832;48.152;11.530;2022-10-30T09:07:10;9.82;;;3.17;;
56599;SDS011;51832;48.152;11.530;2022-10-30T09:12:10;10.02;;;3.28;;
56599;SDS011;51832;48.152;11.530;2022-10-30T09:17:11;7.25;;;2.78;;
56599;SDS011;51832;48.152;11.530;2022-10-30T09:22:11;9.63;;;2.75;;
56599;SDS011;51832;48.152;11.530;2022-10-30T09:27:12;6.82;;;3.10;;
56599;SDS011;51832;48.152;11.530;2022-10-30T09:32:12;6.85;;;2.40;;
56599;SDS011;51832;48.152;11.530;2022-10-30T09:37:13;8.57;;;2.85;;
56599;SDS011;51832;48.152;11.530;2022-10-30T10:07:41;6.45;;;2.30;;
56599;SDS011;51832;48.152;11.530;2022-10-30T10:12:49;7.07;;;2.80;;
56599;SDS011;51832;48.152;11.530;2022-10-30T10:17:52;6.93;;;2.55;;
56599;SDS011;51832;48.152;11.530;2022-10-30T10:22:54;6.63;;;2.40;;
56599;SDS011;51832;48.152;11.530;2022-10-30T10:33:09;8.32;;;3.35;;
56599;SDS011;51832;48.152;11.530;2022-10-30T10:54:05;8.90;;;3.35;;
56599;SDS011;51832;48.152;11.530;2022-10-30T11:04:58;8.20;;;3.03;;
56599;SDS011;51832;48.152;11.530;2022-10-30T11:09:40;7.72;;;2.90;;
56599;SDS011;51832;48.152;11.530;2022-10-30T11:14:41;8.63;;;3.20;;
56599;SDS011;51832;48.152;11.530;2022-10-30T11:19:42;7.32;;;3.58;;
56599;SDS011;51832;48.152;11.530;2022-10-30T11:24:43;6.53;;;3.00;;
56599;SDS011;51832;48.152;11.530;2022-10-30T11:29:47;8.50;;;3.40;;
56599;SDS011;51832;48.152;11.530;2022-10-30T11:35:09;9.13;;;3.08;;
56599;SDS011;51832;48.152;11.530;2022-10-30T11:45:15;8.70;;;3.47;;
56599;SDS011;51832;48.152;11.530;2022-10-30T11:50:19;11.25;;;3.25;;
56599;SDS011;51832;48.152;11.530;2022-10-30T11:55:23;7.97;;;3.38;;
56599;SDS011;51832;48.152;11.530;2022-10-30T12:00:33;15.60;;;3.85;;
56599;SDS011;51832;48.152;11.530;2022-10-30T12:05:36;10.88;;;2.85;;
56599;SDS011;51832;48.152;11.530;2022-10-30T12:21:26;7.50;;;3.15;;
56599;SDS011;51832;48.152;11.530;2022-10-30T12:26:29;7.25;;;2.88;;
56599;SDS011;51832;48.152;11.530;2022-10-30T12:31:31;8.43;;;3.45;;
56599;SDS011;51832;48.152;11.530;2022-10-30T12:36:40;8.13;;;2.95;;
56599;SDS011;51832;48.152;11.530;2022-10-30T12:42:06;10.90;;;3.55;;
56599;SDS011;51832;48.152;11.530;2022-10-30T13:03:05;9.10;;;3.40;;
56599;SDS011;51832;48.152;11.530;2022-10-30T13:13:37;7.93;;;3.20;;
56599;SDS011;51832;48.152;11.530;2022-10-30T13:18:41;10.00;;;3.80;;
56599;SDS011;51832;48.152;11.530;2022-10-30T13:45:38;9.35;;;3.50;;
56599;SDS011;51832;48.152;11.530;2022-10-30T13:56:09;11.50;;;3.92;;
56599;SDS011;51832;48.152;11.530;2022-10-30T14:01:21;9.25;;;4.10;;
56599;SDS011;51832;48.152;11.530;2022-10-30T14:11:46;9.73;;;3.97;;
56599;SDS011;51832;48.152;11.530;2022-10-30T14:16:47;8.25;;;3.40;;
56599;SDS011;51832;48.152;11.530;2022-10-30T14:22:23;9.18;;;3.75;;
56599;SDS011;51832;48.152;11.530;2022-10-30T14:27:31;9.95;;;3.47;;
56599;SDS011;51832;48.152;11.530;2022-10-30T14:32:34;6.85;;;3.15;;
56599;SDS011;51832;48.152;11.530;2022-10-30T14:42:46;10.60;;;4.00;;
56599;SDS011;51832;48.152;11.530;2022-10-30T14:58:37;10.95;;;4.00;;
56599;SDS011;51832;48.152;11.530;2022-10-30T15:09:16;12.40;;;4.07;;
56599;SDS011;51832;48.152;11.530;2022-10-30T15:14:30;9.52;;;4.00;;
56599;SDS011;51832;48.152;11.530;2022-10-30T15:19:35;12.00;;;4.50;;
56599;SDS011;51832;48.152;11.530;2022-10-30T15:24:36;11.27;;;3.80;;
56599;SDS011;51832;48.152;11.530;2022-10-30T15:29:48;10.75;;;3.97;;
56599;SDS011;51832;48.152;11.530;2022-10-30T15:34:52;11.05;;;4.00;;
56599;SDS011;51832;48.152;11.530;2022-10-30T15:45:20;11.45;;;4.80;;
56599;SDS011;51832;48.152;11.530;2022-10-30T15:50:24;9.57;;;4.22;;
56599;SDS011;51832;48.152;11.530;2022-10-30T15:55:26;10.00;;;4.63;;
56599;SDS011;51832;48.152;11.530;2022-10-30T16:00:29;9.93;;;4.82;;
56599;SDS011;51832;48.152;11.530;2022-10-30T16:05:34;11.32;;;4.45;;
56599;SDS011;51832;48.152;11.530;2022-10-30T16:10:35;12.98;;;5.15;;
56599;SDS011;51832;48.152;11.530;2022-10-30T16:15:37;9.30;;;4.68;;
56599;SDS011;51832;48.152;11.530;2022-10-30T16:20:39;11.02;;;4.90;;
56599;SDS011;51832;48.152;11.530;2022-10-30T16:25:42;11.68;;;4.82;;
56599;SDS011;51832;48.152;11.530;2022-10-30T16:30:43;11.07;;;4.75;;
56599;SDS011;51832;48.152;11.530;2022-10-30T16:35:44;11.25;;;5.70;;
56599;SDS011;51832;48.152;11.530;2022-10-30T16:40:47;14.38;;;6.53;;
56599;SDS011;51832;48.152;11.530;2022-10-30T16:45:48;18.05;;;6.88;;
56599;SDS011;51832;48.152;11.530;2022-10-30T16:50:49;11.40;;;5.90;;
56599;SDS011;51832;48.152;11.530;2022-10-30T16:55:50;14.40;;;6.20;;
56599;SDS011;51832;48.152;11.530;2022-10-30T17:01:02;12.02;;;7.05;;
56599;SDS011;51832;48.152;11.530;2022-10-30T17:06:50;15.98;;;7.15;;
56599;SDS011;51832;48.152;11.530;2022-10-30T17:11:39;9.07;;;6.45;;
56599;SDS011;51832;48.152;11.530;2022-10-30T17:16:51;22.30;;;8.50;;
56599;SDS011;51832;48.152;11.530;2022-10-30T17:21:52;14.68;;;7.63;;
56599;SDS011;51832;48.152;11.530;2022-10-30T17:26:54;11.07;;;6.22;;
56599;SDS011;51832;48.152;11.530;2022-10-30T17:31:57;19.67;;;8.35;;
56599;SDS011;51832;48.152;11.530;2022-10-30T17:36:57;16.65;;;8.52;;
56599;SDS011;51832;48.152;11.530;2022-10-30T17:41:58;13.88;;;6.82;;
56599;SDS011;51832;48.152;11.530;2022-10-30T17:46:59;14.20;;;8.27;;
56599;SDS011;51832;48.152;11.530;2022-10-30T17:52:08;16.30;;;7.22;;
56599;SDS011;51832;48.152;11.530;2022-10-30T17:57:11;20.25;;;7.75;;
56599;SDS011;51832;48.152;11.530;2022-10-30T18:02:13;17.80;;;7.97;;
56599;SDS011;51832;48.152;11.530;2022-10-30T18:07:15;16.23;;;8.02;;
56599;SDS011;51832;48.152;11.530;2022-10-30T18:12:16;14.18;;;7.65;;
56599;SDS011;51832;48.152;11.530;2022-10-30T18:17:18;16.00;;;7.80;;
56599;SDS011;51832;48.152;11.530;2022-10-30T18:22:18;12.82;;;7.68;;
56599;SDS011;51832;48.152;11.530;2022-10-30T18:27:19;22.63;;;8.38;;
56599;SDS011;51832;48.152;11.530;2022-10-30T18:32:19;28.83;;;9.30;;
56599;SDS011;51832;48.152;11.530;2022-10-30T18:37:20;16.83;;;8.95;;
56599;SDS011;51832;48.152;11.530;2022-10-30T18:42:20;21.30;;;9.02;;
56599;SDS011;51832;48.152;11.530;2022-10-30T18:47:24;16.17;;;8.82;;
56599;SDS011;51832;48.152;11.530;2022-10-30T18:52:24;19.40;;;10.13;;
56599;SDS011;51832;48.152;11.530;2022-10-30T18:57:25;16.35;;;9.20;;
56599;SDS011;51832;48.152;11.530;2022-10-30T19:02:25;18.85;;;10.18;;
56599;SDS011;51832;48.152;11.530;2022-10-30T19:07:26;17.13;;;10.43;;
56599;SDS011;51832;48.152;11.530;2022-10-30T19:12:26;17.55;;;10.07;;
56599;SDS011;51832;48.152;11.530;2022-10-30T19:17:27;17.08;;;11.52;;
56599;SDS011;51832;48.152;11.530;2022-10-30T19:22:28;19.67;;;11.60;;
56599;SDS011;51832;48.152;11.530;2022-10-30T19:27:29;19.98;;;10.65;;
56599;SDS011;51832;48.152;11.530;2022-10-30T19:32:29;21.17;;;10.13;;
56599;SDS011;51832;48.152;11.530;2022-10-30T19:37:30;19.33;;;10.38;;
56599;SDS011;51832;48.152;11.530;2022-10-30T19:42:34;22.48;;;12.02;;
56599;SDS011;51832;48.152;11.530;2022-10-30T19:47:34;18.40;;;10.50;;
56599;SDS011;51832;48.152;11.530;2022-10-30T19:52:35;22.25;;;12.85;;
56599;SDS011;51832;48.152;11.530;2022-10-30T19:57:36;22.98;;;12.40;;
56599;SDS011;51832;48.152;11.530;2022-10-30T20:02:36;24.48;;;11.20;;
56599;SDS011;51832;48.152;11.530;2022-10-30T20:07:37;20.55;;;11.27;;
56599;SDS011;51832;48.152;11.530;2022-10-30T20:12:37;21.88;;;12.35;;
56599;SDS011;51832;48.152;11.530;2022-10-30T20:17:38;20.45;;;11.55;;
56599;SDS011;51832;48.152;11.530;2022-10-30T20:22:38;19.80;;;11.73;;
56599;SDS011;51832;48.152;11.530;2022-10-30T20:27:39;21.77;;;11.68;;
56599;SDS011;51832;48.152;11.530;2022-10-30T20:32:41;22.70;;;12.20;;
56599;SDS011;51832;48.152;11.530;2022-10-30T20:37:42;23.52;;;12.80;;
56599;SDS011;51832;48.152;11.530;2022-10-30T20:42:55;21.88;;;11.88;;
56599;SDS011;51832;48.152;11.530;2022-10-30T20:47:57;19.40;;;11.45;;
56599;SDS011;51832;48.152;11.530;2022-10-30T20:53:02;18.25;;;10.90;;
56599;SDS011;51832;48.152;11.530;2022-10-30T20:58:11;15.18;;;8.95;;
56599;SDS011;51832;48.152;11.530;2022-10-30T21:03:12;19.48;;;11.68;;
56599;SDS011;51832;48.152;11.530;2022-10-30T21:08:16;19.77;;;11.00;;
56599;SDS011;51832;48.152;11.530;2022-10-30T21:13:16;28.33;;;14.32;;
56599;SDS011;51832;48.152;11.530;2022-10-30T21:18:17;19.70;;;13.05;;
56599;SDS011;51832;48.152;11.530;2022-10-30T21:23:17;19.02;;;10.73;;
56599;SDS011;51832;48.152;11.530;2022-10-30T21:28:18;14.68;;;10.50;;
56599;SDS011;51832;48.152;11.530;2022-10-30T21:33:18;23.85;;;12.05;;
56599;SDS011;51832;48.152;11.530;2022-10-30T21:38:19;17.08;;;11.55;;
56599;SDS011;51832;48.152;11.530;2022-10-30T21:43:19;16.10;;;8.20;;
56599;SDS011;51832;48.152;11.530;2022-10-30T21:48:20;19.63;;;10.52;;
56599;SDS011;51832;48.152;11.530;2022-10-30T21:53:21;22.85;;;11.25;;
56599;SDS011;51832;48.152;11.530;2022-10-30T21:58:21;22.35;;;11.68;;
56599;SDS011;51832;48.152;11.530;2022-10-30T22:03:22;19.38;;;10.82;;
56599;SDS011;51832;48.152;11.530;2022-10-30T22:08:22;15.73;;;9.77;;
56599;SDS011;51832;48.152;11.530;2022-10-30T22:13:23;16.42;;;9.48;;
56599;SDS011;51832;48.152;11.530;2022-10-30T22:18:23;16.95;;;9.60;;
56599;SDS011;51832;48.152;11.530;2022-10-30T22:23:24;15.65;;;8.13;;
56599;SDS011;51832;48.152;11.530;2022-10-30T22:28:25;20.20;;;10.82;;
56599;SDS011;51832;48.152;11.530;2022-10-30T22:33:27;16.17;;;9.85;;
56599;SDS011;51832;48.152;11.530;2022-10-30T22:38:29;16.52;;;9.68;;
56599;SDS011;51832;48.152;11.530;2022-10-30T22:43:29;19.08;;;9.73;;
56599;SDS011;51832;48.152;11.530;2022-10-30T22:48:30;16.83;;;10.98;;
56599;SDS011;51832;48.152;11.530;2022-10-30T22:53:31;16.00;;;9.20;;
56599;SDS011;51832;48.152;11.530;2022-10-30T22:58:32;15.63;;;8.75;;
56599;SDS011;51832;48.152;11.530;2022-10-30T23:03:32;11.15;;;7.47;;
56599;SDS011;51832;48.152;11.530;2022-10-30T23:08:33;15.07;;;7.97;;
56599;SDS011;51832;48.152;11.530;2022-10-30T23:13:34;14.32;;;8.02;;
56599;SDS011;51832;48.152;11.530;2022-10-30T23:18:35;12.23;;;7.40;;
56599;SDS011;51832;48.152;11.530;2022-10-30T23:23:36;14.43;;;6.72;;
56599;SDS011;51832;48.152;11.530;2022-10-30T23:28:38;10.93;;;6.75;;
56599;SDS011;51832;48.152;11.530;2022-10-30T23:33:38;14.75;;;7.63;;
56599;SDS011;51832;48.152;11.530;2022-10-30T23:38:39;8.07;;;6.15;;
56599;SDS011;51832;48.152;11.530;2022-10-30T23:43:39;12.38;;;7.18;;
56599;SDS011;51832;48.152;11.530;2022-10-30T23:48:40;10.32;;;6.70;;
56599;SDS011;51832;48.152;11.530;2022-10-30T23:53:40;9.77;;;6.65;;
56599;SDS011;51832;48.152;11.530;2022-10-30T23:58:42;9.65;;;6.55;;
